Pagrindinis puslapis
METAR-TAF:

METAR-TAF

Oro uostai :

Ras al Chaima, Jungtiniai Arabų Emyratai

platuma: 25-37N, ilguma: 055-56E, Aukštis: 31 m

Dabartinis oras

Ataskaita buvo paskelbta 10 minutes, ne 19:00 UTC
Vėjas 3 kt iš Šiaurės/Šiaurės Vakarų
Temperatūra 34°C
Drėgmė 71%
Slėgis 994 hPa
Matomumas 10 km arba daugiau
nėra debesų žemiau 1500 m ir nėra kamuolinių lietaus debesų

METAR: OMRK 141900Z 33003KT CAVOK 34/28 Q0994 A2935

Laikas: 23:10 (19:10 UTC)

Prognozė

Ataskaita buvo paskelbta 2 valandos ir 7 minutes, ne 17:03 UTC
Prognozė galioja nuo 14 metu 18 UTC su 16 metu 00 UTC
Vėjas 5 kt iš Rytų
Matomumas: 8000 m
Tikimybė 30%
nuo 14 metu 20 UTC su 15 metu 04 UTC
Matomumas: 4000 m
migla
Tapsmas
nuo 15 metu 08 UTC su 15 metu 10 UTC
Vėjas 12 kt iš Šiaurės
Tapsmas
nuo 15 metu 14 UTC su 15 metu 16 UTC
Vėjas 5 kt iš Rytų

TAF: OMRK 141703Z 1418/1600 10005KT 8000 NSC PROB30 1420/1504 4000 HZ BECMG 1508/1510 35012KT BECMG 1514/1516 09005KT

Orai ataskaitas ir orų prognozės (METAR, TAF).

turimą stotys yra geltonos ir raudonos taškus žemėlapyje.

Perkelti pele per norėdami pamatyti stoties vardą.

Tada spustelėkite, norėdami matyti oro stebėjimo ir prognozės.

Norėdami pakeisti žemėlapį: spustelėkite ant žalios mygtukų su juodo kryžiaus žemyn,; žalią mygtuką su brūkšneliu, jei norite nutolinti; arba žalių rodyklių gretimoms žemėlapius.


METAR-TAF: